createdAt,value
2023-01-22T00:01:19.280Z,6.47
2023-01-22T00:03:51.979Z,5.70
2023-01-22T00:06:22.041Z,4.90
2023-01-22T00:08:50.231Z,5.03
2023-01-22T00:11:19.809Z,5.00
2023-01-22T00:13:50.160Z,4.90
2023-01-22T00:16:19.145Z,5.27
2023-01-22T00:18:47.060Z,5.30
2023-01-22T00:21:14.946Z,4.63
2023-01-22T00:23:44.196Z,4.93
2023-01-22T00:26:14.098Z,5.17
2023-01-22T00:28:42.692Z,4.80
2023-01-22T00:31:12.887Z,4.73
2023-01-22T00:33:41.295Z,4.93
2023-01-22T00:36:11.799Z,4.63
2023-01-22T00:38:39.995Z,5.00
2023-01-22T00:41:09.801Z,4.53
2023-01-22T00:43:39.601Z,4.60
2023-01-22T00:46:08.030Z,4.93
2023-01-22T00:48:36.593Z,4.73
2023-01-22T00:51:04.637Z,4.73
2023-01-22T00:53:32.485Z,4.93
2023-01-22T00:56:02.263Z,4.77
2023-01-22T00:58:32.074Z,4.67
2023-01-22T01:01:01.856Z,4.93
2023-01-22T01:03:31.689Z,5.00
2023-01-22T01:06:01.564Z,4.80
2023-01-22T01:08:30.931Z,4.90
2023-01-22T01:11:00.473Z,5.30
2023-01-22T01:13:29.657Z,4.70
2023-01-22T01:16:03.518Z,4.90
2023-01-22T01:18:32.268Z,4.53
2023-01-22T01:21:01.318Z,4.80
2023-01-22T01:23:30.258Z,4.87
2023-01-22T01:25:58.153Z,4.97
2023-01-22T01:28:26.145Z,4.63
2023-01-22T01:30:54.043Z,4.60
2023-01-22T01:33:23.581Z,4.90
2023-01-22T01:36:00.200Z,4.87
2023-01-22T01:38:28.280Z,5.30
2023-01-22T01:40:56.198Z,4.57
2023-01-22T01:43:24.548Z,4.50
2023-01-22T01:45:52.479Z,4.67
2023-01-22T01:48:32.577Z,4.40
2023-01-22T01:51:06.113Z,4.30
2023-01-22T01:53:34.694Z,4.40
2023-01-22T01:56:04.812Z,4.40
2023-01-22T01:58:35.547Z,4.20
2023-01-22T02:01:11.741Z,4.60
2023-01-22T02:03:42.074Z,5.00
2023-01-22T02:06:12.484Z,4.70
2023-01-22T02:08:41.157Z,4.50
2023-01-22T02:11:09.945Z,4.73
2023-01-22T02:13:40.924Z,4.30
2023-01-22T02:16:10.495Z,4.60
2023-01-22T02:18:38.503Z,4.93
2023-01-22T02:21:42.161Z,4.50
2023-01-22T02:24:14.185Z,4.97
2023-01-22T02:26:43.437Z,4.47
2023-01-22T02:29:12.820Z,4.57
2023-01-22T02:31:42.388Z,4.63
2023-01-22T02:34:11.212Z,4.77
2023-01-22T02:36:40.727Z,4.70
2023-01-22T02:39:09.009Z,4.63
2023-01-22T02:41:38.434Z,4.63
2023-01-22T02:44:07.452Z,4.40
2023-01-22T02:46:35.672Z,4.60
2023-01-22T02:49:03.757Z,4.67
2023-01-22T02:51:31.604Z,4.50
2023-01-22T02:54:02.339Z,5.47
2023-01-22T02:56:30.252Z,4.70
2023-01-22T02:59:00.845Z,4.43
2023-01-22T03:01:28.840Z,4.63
2023-01-22T03:03:59.784Z,4.77
2023-01-22T03:06:29.689Z,4.70
2023-01-22T03:08:59.592Z,4.60
2023-01-22T03:11:29.706Z,4.50
2023-01-22T03:14:16.699Z,5.13
2023-01-22T03:17:02.553Z,4.47
2023-01-22T03:19:48.032Z,4.90
2023-01-22T03:22:16.679Z,5.30
2023-01-22T03:24:44.588Z,5.40
2023-01-22T03:27:12.498Z,5.40
2023-01-22T03:29:41.739Z,5.37
2023-01-22T03:32:09.764Z,5.00
2023-01-22T03:34:38.349Z,5.00
2023-01-22T03:37:06.844Z,5.00
2023-01-22T03:39:35.106Z,4.80
2023-01-22T03:42:03.074Z,4.87
2023-01-22T03:44:31.170Z,5.10
2023-01-22T03:47:00.471Z,4.90
2023-01-22T03:49:28.398Z,4.90
2023-01-22T03:51:57.522Z,5.27
2023-01-22T03:54:25.513Z,5.00
2023-01-22T03:56:53.480Z,4.97
2023-01-22T03:59:21.677Z,4.17
2023-01-22T04:01:50.869Z,4.90
2023-01-22T04:04:20.204Z,4.90
2023-01-22T04:06:48.070Z,5.00
2023-01-22T04:09:15.958Z,5.03
2023-01-22T04:11:43.943Z,4.30
2023-01-22T04:14:11.791Z,5.00
2023-01-22T04:16:39.638Z,4.80
2023-01-22T04:19:07.652Z,4.53
2023-01-22T04:21:37.010Z,4.60
2023-01-22T04:24:05.035Z,5.00
2023-01-22T04:26:32.912Z,4.40
2023-01-22T04:29:00.826Z,4.60
2023-01-22T04:31:28.756Z,4.80
2023-01-22T04:33:56.796Z,4.33
2023-01-22T04:36:24.653Z,4.50
2023-01-22T04:38:53.855Z,4.60
2023-01-22T04:41:21.793Z,4.93
2023-01-22T04:43:50.047Z,4.47
2023-01-22T04:46:17.960Z,5.07
2023-01-22T04:48:46.774Z,4.67
2023-01-22T04:51:14.603Z,4.67
2023-01-22T04:53:42.468Z,4.47
2023-01-22T04:56:11.771Z,4.30
2023-01-22T04:58:39.591Z,4.87
2023-01-22T05:01:07.537Z,5.10
2023-01-22T05:03:35.514Z,4.27
2023-01-22T05:06:04.083Z,4.70
2023-01-22T05:08:31.983Z,4.80
2023-01-22T05:11:02.201Z,4.37
2023-01-22T05:13:31.504Z,4.80
2023-01-22T05:15:59.382Z,4.90
2023-01-22T05:18:27.322Z,4.57
2023-01-22T05:20:55.937Z,4.70
2023-01-22T05:23:23.828Z,4.33
2023-01-22T05:25:52.280Z,4.60
2023-01-22T05:28:20.232Z,4.43
2023-01-22T05:30:50.802Z,4.70
2023-01-22T05:33:18.770Z,4.80
2023-01-22T05:35:46.560Z,4.50
2023-01-22T05:38:14.345Z,4.47
2023-01-22T05:40:42.275Z,5.10
2023-01-22T05:43:10.139Z,5.37
2023-01-22T05:45:37.992Z,5.00
2023-01-22T05:48:07.409Z,4.73
2023-01-22T05:50:35.303Z,5.10
2023-01-22T05:53:03.472Z,4.60
2023-01-22T05:55:31.446Z,4.67
2023-01-22T05:57:59.278Z,5.20
2023-01-22T06:00:27.875Z,4.77
2023-01-22T06:02:57.274Z,4.70
2023-01-22T06:05:26.579Z,5.47
2023-01-22T06:07:54.459Z,4.60
2023-01-22T06:10:22.490Z,4.83
2023-01-22T06:12:50.289Z,5.07
2023-01-22T06:15:18.261Z,4.73
2023-01-22T06:17:46.336Z,4.70
2023-01-22T06:20:14.205Z,5.30
2023-01-22T06:22:43.336Z,4.83
2023-01-22T06:25:11.249Z,4.20
2023-01-22T06:27:39.086Z,4.93
2023-01-22T06:30:08.126Z,4.90
2023-01-22T06:32:36.222Z,4.70
2023-01-22T06:35:04.138Z,4.67
2023-01-22T06:37:32.051Z,4.40
2023-01-22T06:40:01.398Z,5.40
2023-01-22T06:42:29.293Z,5.43
2023-01-22T06:44:57.200Z,5.00
2023-01-22T06:47:25.054Z,5.20
2023-01-22T06:49:52.883Z,4.90
2023-01-22T06:52:20.820Z,4.97
2023-01-22T06:54:48.881Z,5.30
2023-01-22T06:57:18.282Z,5.40
2023-01-22T06:59:46.080Z,4.93
2023-01-22T07:02:17.806Z,5.87
2023-01-22T07:04:45.675Z,5.37
2023-01-22T07:07:14.190Z,4.90
2023-01-22T07:09:42.145Z,4.77
2023-01-22T07:12:10.041Z,5.23
2023-01-22T07:14:39.319Z,5.60
2023-01-22T07:17:07.320Z,5.33
2023-01-22T07:19:35.172Z,5.40
2023-01-22T07:22:03.155Z,4.97
2023-01-22T07:24:31.252Z,5.07
2023-01-22T07:26:59.044Z,5.93
2023-01-22T07:29:27.115Z,5.40
2023-01-22T07:31:56.512Z,5.33
2023-01-22T07:34:24.444Z,5.10
2023-01-22T07:36:52.330Z,5.00
2023-01-22T07:39:20.286Z,5.60
2023-01-22T07:41:48.271Z,5.23
2023-01-22T07:44:16.391Z,5.30
2023-01-22T07:46:44.382Z,5.37
2023-01-22T07:49:13.683Z,4.90
2023-01-22T07:51:41.585Z,5.57
2023-01-22T07:54:09.545Z,5.07
2023-01-22T07:56:37.586Z,5.13
2023-01-22T07:59:06.017Z,5.43
2023-01-22T08:01:33.961Z,4.97
2023-01-22T08:04:01.809Z,5.40
2023-01-22T08:06:30.950Z,4.57
2023-01-22T08:08:59.429Z,5.37
2023-01-22T08:11:27.421Z,4.97
2023-01-22T08:13:55.548Z,5.27
2023-01-22T08:16:23.759Z,5.20
2023-01-22T08:18:51.656Z,5.03
2023-01-22T08:21:19.646Z,4.77
2023-01-22T08:23:49.505Z,5.20
2023-01-22T08:26:17.514Z,5.27
2023-01-22T08:28:45.511Z,4.87
2023-01-22T08:31:26.341Z,5.07
2023-01-22T08:33:55.572Z,5.20
2023-01-22T08:36:23.526Z,5.43
2023-01-22T08:38:52.986Z,5.00
2023-01-22T08:41:21.302Z,5.20
2023-01-22T08:43:50.003Z,4.77
2023-01-22T08:46:18.241Z,5.13
2023-01-22T08:48:46.268Z,5.27
2023-01-22T08:51:14.645Z,4.90
2023-01-22T08:53:42.786Z,4.83
2023-01-22T08:56:12.525Z,4.80
2023-01-22T08:58:40.584Z,5.10
2023-01-22T09:01:11.047Z,4.70
2023-01-22T09:03:39.007Z,4.80
2023-01-22T09:06:07.274Z,4.60
2023-01-22T09:08:35.411Z,5.23
2023-01-22T09:11:05.341Z,4.50
2023-01-22T09:13:34.870Z,4.73
2023-01-22T09:16:03.040Z,4.87
2023-01-22T09:18:30.996Z,4.50
2023-01-22T09:20:59.787Z,5.30
2023-01-22T09:23:27.761Z,4.70
2023-01-22T09:25:55.546Z,4.63
2023-01-22T09:28:23.480Z,4.47
2023-01-22T09:30:52.670Z,4.87
2023-01-22T09:33:20.516Z,4.40
2023-01-22T09:35:48.414Z,4.13
2023-01-22T09:38:16.518Z,4.50
2023-01-22T09:40:46.710Z,4.50
2023-01-22T09:43:26.552Z,4.93
2023-01-22T09:45:57.954Z,4.63
2023-01-22T09:48:33.849Z,4.40
2023-01-22T09:51:02.176Z,4.50
2023-01-22T09:53:31.585Z,4.50
2023-01-22T09:56:00.127Z,4.10
2023-01-22T09:58:31.708Z,4.63
2023-01-22T10:01:04.648Z,4.37
2023-01-22T10:03:35.718Z,4.03
2023-01-22T10:06:08.429Z,5.20
2023-01-22T10:08:41.179Z,4.80
2023-01-22T10:11:11.085Z,5.17
2023-01-22T10:13:40.833Z,4.93
2023-01-22T10:16:13.159Z,4.90
2023-01-22T10:18:44.923Z,4.90
2023-01-22T10:21:19.879Z,5.73
2023-01-22T10:23:50.157Z,5.60
2023-01-22T10:26:25.179Z,5.83
2023-01-22T10:28:56.476Z,4.07
2023-01-22T10:31:28.850Z,4.40
2023-01-22T10:33:58.850Z,4.37
2023-01-22T10:36:27.889Z,4.67
2023-01-22T10:39:12.416Z,4.67
2023-01-22T10:41:41.063Z,4.73
2023-01-22T10:44:19.895Z,4.57
2023-01-22T10:46:56.196Z,4.47
2023-01-22T10:49:28.909Z,4.87
2023-01-22T10:52:01.417Z,4.40
2023-01-22T10:54:33.508Z,4.20
2023-01-22T10:57:31.735Z,4.37
2023-01-22T11:00:24.718Z,4.20
2023-01-22T11:02:54.405Z,3.90
2023-01-22T11:05:24.750Z,4.37
2023-01-22T11:07:55.468Z,3.90
2023-01-22T11:10:26.985Z,4.20
2023-01-22T11:12:59.703Z,4.40
2023-01-22T11:15:37.938Z,4.13
2023-01-22T11:18:08.807Z,3.40
2023-01-22T11:20:46.940Z,4.20
2023-01-22T11:23:20.488Z,3.73
2023-01-22T11:25:57.803Z,3.87
2023-01-22T11:28:41.670Z,4.03
2023-01-22T11:31:27.113Z,4.17
2023-01-22T11:34:20.682Z,3.80
2023-01-22T11:36:56.404Z,3.60
2023-01-22T11:39:39.545Z,3.83
2023-01-22T11:42:22.973Z,3.83
2023-01-22T11:45:03.771Z,3.57
2023-01-22T11:47:50.162Z,3.77
2023-01-22T11:50:28.389Z,3.77
2023-01-22T11:53:22.517Z,3.73
2023-01-22T11:56:13.342Z,4.07
2023-01-22T11:58:51.019Z,3.70
2023-01-22T12:01:29.234Z,4.10
2023-01-22T12:04:28.630Z,3.70
2023-01-22T12:07:22.800Z,3.43
2023-01-22T12:10:02.611Z,4.03
2023-01-22T12:12:41.931Z,3.60
2023-01-22T12:15:33.833Z,3.23
2023-01-22T12:18:17.910Z,4.00
2023-01-22T12:21:09.601Z,3.57
2023-01-22T12:23:43.392Z,3.80
2023-01-22T12:26:15.869Z,3.50
2023-01-22T12:28:50.254Z,3.67
2023-01-22T12:31:24.560Z,3.30
2023-01-22T12:33:52.802Z,3.70
2023-01-22T12:36:24.085Z,29.13
2023-01-22T12:38:55.914Z,43.83
2023-01-22T12:41:45.517Z,10.47
2023-01-22T12:44:28.957Z,23.53
2023-01-22T12:47:06.085Z,7.00
2023-01-22T12:49:33.870Z,8.97
2023-01-22T12:52:01.695Z,29.17
2023-01-22T12:54:33.796Z,21.27
2023-01-22T12:57:13.858Z,9.23
2023-01-22T12:59:45.704Z,16.67
2023-01-22T13:02:35.769Z,8.17
2023-01-22T13:05:41.839Z,6.27
2023-01-22T13:08:35.490Z,5.27
2023-01-22T13:11:06.836Z,6.30
2023-01-22T13:13:39.906Z,4.40
2023-01-22T13:16:21.031Z,5.13
2023-01-22T13:18:51.312Z,4.70
2023-01-22T13:21:25.879Z,4.43
2023-01-22T13:23:59.830Z,4.10
2023-01-22T13:26:31.732Z,4.17
2023-01-22T13:29:01.687Z,3.77
2023-01-22T13:31:29.925Z,3.73
2023-01-22T13:34:05.183Z,3.70
2023-01-22T13:36:33.007Z,5.53
2023-01-22T13:39:03.637Z,3.37
2023-01-22T13:41:36.135Z,4.00
2023-01-22T13:44:05.244Z,3.43
2023-01-22T13:46:37.254Z,3.57
2023-01-22T13:49:08.077Z,3.73
2023-01-22T13:51:40.207Z,3.00
2023-01-22T13:54:08.777Z,3.53
2023-01-22T13:56:38.683Z,3.67
2023-01-22T13:59:16.594Z,3.63
2023-01-22T14:01:44.639Z,3.50
2023-01-22T14:04:34.466Z,3.50
2023-01-22T14:07:02.718Z,3.80
2023-01-22T14:09:32.833Z,3.63
2023-01-22T14:12:13.687Z,3.30
2023-01-22T14:14:43.314Z,5.60
2023-01-22T14:17:21.676Z,3.63
2023-01-22T14:19:49.576Z,5.63
2023-01-22T14:22:17.604Z,3.03
2023-01-22T14:24:45.607Z,3.57
2023-01-22T14:27:15.053Z,3.90
2023-01-22T14:29:42.942Z,3.73
2023-01-22T14:32:10.923Z,4.27
2023-01-22T14:34:38.862Z,4.43
2023-01-22T14:37:06.898Z,3.30
2023-01-22T14:39:35.097Z,4.23
2023-01-22T14:42:03.381Z,2.90
2023-01-22T14:44:33.698Z,3.80
2023-01-22T14:47:01.913Z,4.27
2023-01-22T14:49:29.736Z,2.93
2023-01-22T14:51:57.756Z,3.13
2023-01-22T14:54:26.097Z,4.53
2023-01-22T14:56:54.262Z,4.60
2023-01-22T14:59:22.100Z,3.93
2023-01-22T15:01:51.526Z,6.67
2023-01-22T15:04:19.336Z,3.40
2023-01-22T15:06:47.170Z,3.47
2023-01-22T15:09:15.110Z,3.10
2023-01-22T15:11:42.925Z,2.93
2023-01-22T15:14:10.804Z,3.00
2023-01-22T15:16:40.317Z,3.23
2023-01-22T15:19:09.608Z,2.63
2023-01-22T15:21:37.890Z,2.60
2023-01-22T15:24:06.615Z,2.80
2023-01-22T15:26:36.708Z,2.67
2023-01-22T15:29:06.274Z,3.10
2023-01-22T15:31:34.342Z,3.97
2023-01-22T15:34:03.344Z,3.03
2023-01-22T15:36:33.915Z,2.70
2023-01-22T15:39:01.739Z,2.23
2023-01-22T15:41:31.595Z,3.23
2023-01-22T15:44:02.475Z,2.57
2023-01-22T15:46:32.729Z,2.70
2023-01-22T15:49:01.325Z,2.83
2023-01-22T15:51:30.246Z,2.60
2023-01-22T15:54:01.205Z,2.50
2023-01-22T15:56:31.645Z,2.63
2023-01-22T15:59:00.169Z,2.30
2023-01-22T16:01:29.290Z,3.13
2023-01-22T16:03:57.554Z,2.53
2023-01-22T16:06:26.791Z,2.63
2023-01-22T16:08:57.629Z,2.90
2023-01-22T16:11:28.723Z,4.00
2023-01-22T16:13:56.962Z,3.90
2023-01-22T16:16:26.999Z,3.30
2023-01-22T16:18:55.370Z,3.77
2023-01-22T16:21:24.235Z,3.20
2023-01-22T16:23:55.000Z,3.00
2023-01-22T16:26:25.141Z,3.20
2023-01-22T16:28:55.757Z,2.53
2023-01-22T16:31:25.235Z,2.93
2023-01-22T16:33:55.861Z,3.40
2023-01-22T16:36:25.163Z,2.97
2023-01-22T16:38:53.650Z,3.10
2023-01-22T16:41:26.074Z,3.10
2023-01-22T16:43:57.789Z,4.00
2023-01-22T16:46:27.357Z,3.27
2023-01-22T16:49:02.729Z,3.97
2023-01-22T16:51:35.568Z,3.30
2023-01-22T16:54:03.780Z,3.13
2023-01-22T16:56:32.446Z,3.00
2023-01-22T16:59:02.290Z,2.90
2023-01-22T17:01:31.265Z,3.27
2023-01-22T17:04:00.417Z,3.53
2023-01-22T17:06:32.571Z,3.40
2023-01-22T17:09:01.143Z,3.10
2023-01-22T17:11:28.995Z,3.33
2023-01-22T17:13:56.920Z,3.50
2023-01-22T17:16:26.451Z,3.23
2023-01-22T17:18:55.499Z,3.50
2023-01-22T17:21:24.092Z,3.40
2023-01-22T17:23:51.923Z,3.00
2023-01-22T17:26:19.794Z,3.47
2023-01-22T17:28:47.756Z,3.57
2023-01-22T17:31:18.948Z,3.70
2023-01-22T17:33:48.630Z,3.90
2023-01-22T17:36:18.897Z,3.93
2023-01-22T17:38:46.953Z,4.03
2023-01-22T17:41:17.209Z,4.37
2023-01-22T17:43:46.551Z,4.50
2023-01-22T17:46:15.881Z,4.17
2023-01-22T17:48:44.836Z,3.90
2023-01-22T17:51:17.212Z,5.80
2023-01-22T17:53:46.529Z,3.97
2023-01-22T17:56:16.460Z,3.60
2023-01-22T17:58:45.941Z,3.83
2023-01-22T18:01:16.168Z,3.70
2023-01-22T18:03:44.319Z,3.80
2023-01-22T18:06:13.996Z,4.00
2023-01-22T18:08:42.500Z,4.03
2023-01-22T18:11:12.034Z,4.87
2023-01-22T18:13:40.325Z,3.20
2023-01-22T18:16:10.107Z,3.60
2023-01-22T18:18:38.099Z,3.60
2023-01-22T18:21:08.033Z,3.87
2023-01-22T18:23:37.227Z,3.40
2023-01-22T18:26:06.674Z,4.13
2023-01-22T18:28:35.124Z,4.37
2023-01-22T18:31:08.172Z,3.33
2023-01-22T18:33:37.677Z,4.37
2023-01-22T18:36:08.490Z,2.90
2023-01-22T18:38:38.331Z,3.03
2023-01-22T18:41:07.076Z,3.40
2023-01-22T18:43:35.162Z,4.27
2023-01-22T18:46:04.838Z,3.37
2023-01-22T18:48:32.743Z,3.17
2023-01-22T18:51:00.679Z,3.33
2023-01-22T18:53:29.724Z,3.37
2023-01-22T18:56:01.281Z,2.70
2023-01-22T18:58:31.156Z,3.00
2023-01-22T19:01:00.622Z,3.20
2023-01-22T19:03:28.533Z,3.07
2023-01-22T19:05:57.146Z,2.60
2023-01-22T19:08:24.990Z,2.70
2023-01-22T19:10:53.012Z,2.90
2023-01-22T19:13:22.450Z,2.87
2023-01-22T19:15:50.341Z,3.13
2023-01-22T19:18:18.204Z,3.07
2023-01-22T19:20:46.169Z,2.70
2023-01-22T19:23:13.974Z,2.70
2023-01-22T19:25:41.795Z,2.47
2023-01-22T19:28:09.785Z,2.50
2023-01-22T19:30:38.964Z,2.80
2023-01-22T19:33:06.876Z,3.10
2023-01-22T19:35:34.778Z,3.50
2023-01-22T19:38:02.581Z,3.53
2023-01-22T19:40:30.384Z,2.40
2023-01-22T19:42:58.312Z,3.17
2023-01-22T19:45:32.199Z,2.90
2023-01-22T19:48:02.022Z,2.93
2023-01-22T19:50:29.848Z,2.97
2023-01-22T19:52:57.699Z,3.40
2023-01-22T19:55:26.538Z,2.73
2023-01-22T19:57:55.183Z,3.00
2023-01-22T20:00:23.598Z,3.00
2023-01-22T20:02:51.574Z,2.70
2023-01-22T20:05:21.448Z,3.00
2023-01-22T20:07:49.504Z,3.20
2023-01-22T20:10:19.266Z,2.90
2023-01-22T20:12:50.684Z,2.70
2023-01-22T20:15:19.350Z,3.00
2023-01-22T20:17:47.364Z,2.73
2023-01-22T20:20:15.185Z,2.53
2023-01-22T20:22:44.604Z,2.73
2023-01-22T20:25:13.857Z,2.50
2023-01-22T20:27:41.673Z,2.90
2023-01-22T20:30:10.790Z,3.30
2023-01-22T20:32:38.688Z,3.80
2023-01-22T20:35:07.225Z,2.87
2023-01-22T20:37:35.212Z,3.07
2023-01-22T20:40:04.798Z,3.20
2023-01-22T20:42:32.809Z,3.20
2023-01-22T20:45:00.669Z,2.47
2023-01-22T20:47:28.511Z,2.43
2023-01-22T20:49:56.316Z,2.90
2023-01-22T20:52:24.266Z,2.50
2023-01-22T20:55:01.552Z,2.70
2023-01-22T20:57:32.328Z,2.80
2023-01-22T21:00:00.134Z,2.87
2023-01-22T21:02:28.039Z,2.67
2023-01-22T21:04:56.587Z,2.53
2023-01-22T21:07:24.370Z,2.83
2023-01-22T21:09:52.305Z,3.83
2023-01-22T21:12:20.360Z,3.60
2023-01-22T21:14:53.731Z,2.60
2023-01-22T21:17:22.177Z,2.30
2023-01-22T21:19:51.595Z,2.77
2023-01-22T21:22:19.477Z,3.10
2023-01-22T21:24:47.452Z,2.40
2023-01-22T21:27:15.275Z,2.80
2023-01-22T21:29:43.101Z,2.83
2023-01-22T21:32:12.440Z,3.50
2023-01-22T21:34:40.586Z,3.20
2023-01-22T21:37:08.433Z,2.90
2023-01-22T21:39:38.666Z,2.40
2023-01-22T21:42:23.802Z,2.73
2023-01-22T21:45:09.057Z,2.70
2023-01-22T21:47:38.260Z,2.80
2023-01-22T21:50:06.750Z,3.23
2023-01-22T21:52:34.757Z,2.70
2023-01-22T21:55:02.517Z,2.90
2023-01-22T21:57:30.411Z,2.70
2023-01-22T21:59:58.357Z,2.93
2023-01-22T22:02:27.194Z,2.53
2023-01-22T22:04:56.683Z,2.80
2023-01-22T22:07:24.501Z,2.67
2023-01-22T22:09:52.314Z,2.77
2023-01-22T22:12:20.144Z,3.03
2023-01-22T22:14:48.083Z,2.70
2023-01-22T22:17:15.904Z,2.63
2023-01-22T22:19:43.749Z,2.60
2023-01-22T22:22:13.047Z,2.80
2023-01-22T22:24:41.013Z,2.80
2023-01-22T22:27:08.864Z,2.80
2023-01-22T22:29:36.820Z,2.83
2023-01-22T22:32:04.762Z,2.73
2023-01-22T22:34:35.083Z,2.70
2023-01-22T22:37:03.014Z,2.47
2023-01-22T22:39:32.464Z,2.60
2023-01-22T22:42:00.315Z,2.83
2023-01-22T22:44:28.307Z,2.53
2023-01-22T22:46:56.330Z,3.00
2023-01-22T22:49:24.324Z,2.80
2023-01-22T22:51:52.417Z,2.70
2023-01-22T22:54:21.244Z,2.50
2023-01-22T22:56:51.249Z,2.57
2023-01-22T22:59:20.909Z,2.40
2023-01-22T23:01:49.412Z,2.80
2023-01-22T23:04:17.737Z,2.80
2023-01-22T23:06:46.802Z,2.77
2023-01-22T23:09:17.343Z,2.10
2023-01-22T23:11:47.414Z,2.60
2023-01-22T23:14:16.593Z,2.43
2023-01-22T23:16:45.166Z,2.60
2023-01-22T23:19:15.935Z,2.23
2023-01-22T23:21:44.444Z,2.10
2023-01-22T23:24:14.431Z,2.37
2023-01-22T23:26:43.878Z,2.40
2023-01-22T23:29:13.402Z,2.47
2023-01-22T23:31:42.887Z,2.20
2023-01-22T23:34:13.548Z,2.10
2023-01-22T23:36:44.279Z,2.37
2023-01-22T23:39:13.019Z,2.40
2023-01-22T23:41:40.849Z,2.33
2023-01-22T23:44:09.355Z,2.43
2023-01-22T23:46:37.439Z,2.50
2023-01-22T23:49:06.753Z,2.53
2023-01-22T23:51:34.740Z,2.40
2023-01-22T23:54:02.855Z,2.33
2023-01-22T23:56:31.830Z,2.07
2023-01-22T23:59:00.593Z,1.97
